EW9994 Pistoia PT current weather conditions

sailwx.info

Wind from 252

Air temperature 10.0° C
Dewpoint 8.6° C

Last reported at 2020-Jan-25 11:04 UTC.
Time now 2020-Jan-25 11:51 UTC

Location: N 43°58' E 010°57'.
View on Google Maps.

See reports from other nearby stations

  
Tides and Currents Weather Stations Pressure Air Temp Water Temp Dewpoint Dewpoint Depression Visibility Wind Speed Wind Dir Waves Ship Positions
date/time (UTC)wind fromknots sea level pressurealtimeterstation pressurevisibilityair tempwater tempwave heightnotes
2020-Jan-25 11:04 252 10.0
2020-Jan-25 10:49 239 1 gusting 2 10.0
2020-Jan-25 10:44 239 2 gusting 4 10.0
2020-Jan-25 10:39 240 2 gusting 4 10.0
2020-Jan-25 10:19 053 1 gusting 2 10.0
2020-Jan-25 10:14 053 1 gusting 2 10.0
2020-Jan-25 10:09 053 0 gusting 2 10.0
2020-Jan-25 09:49 054 9.4
2020-Jan-25 09:44 053 9.4
2020-Jan-25 09:34 053 1 gusting 4 8.9
2020-Jan-25 09:19 064 0 gusting 2 8.9
2020-Jan-25 09:14 064 2 gusting 4 8.3
2020-Jan-25 09:09 065 1 gusting 4 8.3
2020-Jan-25 09:04 065 1 gusting 4 8.3
2020-Jan-25 08:49 065 8.3
2020-Jan-25 08:44 065 0 gusting 1 8.3
2020-Jan-25 08:19 323 7.8
2020-Jan-25 08:14 323 0 gusting 2 7.8
2020-Jan-25 08:09 328 2 gusting 4 7.8
2020-Jan-25 07:49 026 7.8
2020-Jan-25 07:44 040 7.8
2020-Jan-25 07:39 040 2 gusting 2 7.8
2020-Jan-25 07:34 038 2 gusting 2 7.8
2020-Jan-25 07:19 019 1 gusting 4 7.8
2020-Jan-25 07:09 032 2 gusting 2 7.8
2020-Jan-25 07:04 039 2 gusting 2 7.8
2020-Jan-25 06:49 103 7.2
2020-Jan-25 06:44 103 7.2
2020-Jan-25 06:34 103 7.2
2020-Jan-25 06:19 057 2 gusting 2 7.2
2020-Jan-25 06:09 030 1 gusting 2 7.2
2020-Jan-25 06:04 027 2 gusting 5 7.2
2020-Jan-25 05:44 001 4 gusting 6 7.2
2020-Jan-25 05:34 039 4 gusting 6 7.2
2020-Jan-25 05:19 349 0 gusting 2 7.2
2020-Jan-25 05:09 253 0 gusting 1 7.2
2020-Jan-25 05:04 253 1 gusting 2 7.2
2020-Jan-25 04:49 232 0 gusting 2 7.2
2020-Jan-25 04:44 040 7.2
2020-Jan-25 04:39 040 0 gusting 2 7.2
2020-Jan-25 04:34 023 1 gusting 4 7.2
2020-Jan-25 04:19 036 2 gusting 5 7.2
2020-Jan-25 04:14 018 4 gusting 6 7.8
2020-Jan-25 04:09 011 3 gusting 6 7.8
2020-Jan-25 03:49 048 9 gusting 13 7.8
2020-Jan-25 03:44 054 6 gusting 12 7.8
2020-Jan-25 03:39 060 8 gusting 13 7.8
2020-Jan-25 03:34 059 7 gusting 12 7.8
2020-Jan-25 03:19 040 5 gusting 6 7.8
2020-Jan-25 03:09 034 7.8
2020-Jan-25 02:44 013 5 gusting 10 7.8
2020-Jan-25 02:39 046 6 gusting 10 7.8
2020-Jan-25 02:34 043 5 gusting 7 7.8
2020-Jan-25 02:14 017 4 gusting 8 7.8
2020-Jan-25 01:44 330 1 gusting 2 7.8
2020-Jan-25 01:39 232 0 gusting 5 8.3
2020-Jan-25 01:34 209 1 gusting 6 8.3
2020-Jan-25 01:19 039 2 gusting 4 8.3
2020-Jan-25 01:14 027 4 gusting 5 8.3
2020-Jan-25 01:09 018 2 gusting 2 8.3
2020-Jan-25 01:04 018 1 gusting 2 8.3
2020-Jan-25 00:44 018 1 gusting 2 8.3
2020-Jan-25 00:39 018 1 gusting 2 8.3
2020-Jan-25 00:34 018 8.3
2020-Jan-25 00:19 018 8.3
2020-Jan-25 00:04 018 8.3
2020-Jan-24 23:49 040 1 gusting 2 8.3
2020-Jan-24 23:44 040 0 gusting 1 8.3
2020-Jan-24 23:39 040 8.3
2020-Jan-24 23:19 016 8.9
2020-Jan-24 23:14 016 0 gusting 1 8.9
2020-Jan-24 23:04 016 1 gusting 2 8.9
2020-Jan-24 22:44 025 1 gusting 2 8.3
2020-Jan-24 22:39 023 8.3
2020-Jan-24 22:34 352 0 gusting 2 8.3
2020-Jan-24 22:19 315 1 gusting 2 8.3
2020-Jan-24 21:49 032 2 gusting 4 9.4
2020-Jan-24 21:34 020 4 gusting 6 9.4
2020-Jan-24 21:19 034 3 gusting 5 9.4
2020-Jan-24 21:14 050 2 gusting 6 10.0
2020-Jan-24 21:09 044 3 gusting 5 10.0
2020-Jan-24 20:49 037 4 gusting 5 9.4
2020-Jan-24 20:44 029 4 gusting 5 9.4
2020-Jan-24 20:39 036 5 gusting 6 9.4
2020-Jan-24 20:09 034 2 gusting 4 9.4
2020-Jan-24 19:49 029 3 gusting 5 9.4
2020-Jan-24 19:44 030 3 gusting 4 9.4
2020-Jan-24 19:34 030 2 gusting 4 9.4
2020-Jan-24 19:19 035 4 gusting 6 9.4
2020-Jan-24 19:14 034 2 gusting 5 9.4
2020-Jan-24 19:09 031 4 gusting 5 9.4
2020-Jan-24 18:49 039 4 gusting 6 9.4
2020-Jan-24 18:44 029 2 gusting 6 9.4
2020-Jan-24 18:34 029 4 gusting 5 9.4
2020-Jan-24 18:14 013 0 gusting 2 8.9
2020-Jan-24 18:09 023 3 gusting 5 8.9
2020-Jan-24 18:04 027 4 gusting 6 8.9
2020-Jan-24 17:49 026 4 gusting 6 9.4
2020-Jan-24 17:44 032 4 gusting 6 9.4
2020-Jan-24 17:34 030 4 gusting 4 9.4
2020-Jan-24 17:14 038 3 gusting 4 9.4
2020-Jan-24 17:09 025 1 gusting 2 9.4
2020-Jan-24 17:04 025 0 gusting 2 9.4
2020-Jan-24 16:49 025 1 gusting 1 10.0
2020-Jan-24 16:44 025 10.0
2020-Jan-24 16:39 026 0 gusting 2 10.0
2020-Jan-24 16:34 025 2 gusting 5 10.0
2020-Jan-24 16:19 034 2 gusting 4 10.0
2020-Jan-24 16:14 034 1 gusting 4 10.0
2020-Jan-24 16:09 034 0 gusting 1 10.0
2020-Jan-24 16:04 034 10.0
2020-Jan-24 15:49 034 0 gusting 2 10.0
2020-Jan-24 15:34 034 10.6
2020-Jan-24 15:19 034 10.6
2020-Jan-24 15:14 034 10.6
2020-Jan-24 15:09 034 1 gusting 2 10.6
2020-Jan-24 15:04 034 2 gusting 4 10.6
2020-Jan-24 14:44 222 0 gusting 2 10.6
2020-Jan-24 14:34 222 10.6
2020-Jan-24 14:19 221 0 gusting 1 11.1
2020-Jan-24 13:49 201 11.1
2020-Jan-24 13:44 201 0 gusting 1 11.1
2020-Jan-24 13:34 228 11.1
2020-Jan-24 13:14 228 0 gusting 1 11.1
2020-Jan-24 13:09 226 0 gusting 0 11.1
2020-Jan-24 13:04 226 0 gusting 1 11.1
2020-Jan-24 12:44 240 11.1
2020-Jan-24 12:34 240 10.6
2020-Jan-24 12:19 240 0 gusting 1 10.6
2020-Jan-24 12:14 233 0 gusting 2 10.6
2020-Jan-24 12:04 226 0 gusting 2 10.6
2020-Jan-24 11:49 228 0 gusting 1 10.6
2020-Jan-24 11:39 200 0 gusting 1 10.6
2020-Jan-24 11:34 215 0 gusting 2 10.6
2020-Jan-24 11:19 227 1 gusting 2 10.6
2020-Jan-24 11:14 224 0 gusting 2 10.6
2020-Jan-24 11:04 148 10.0
2020-Jan-24 10:49 146 9.4
2020-Jan-24 10:34 223 7.8
2020-Jan-24 10:14 235 0 gusting 2 7.2
2020-Jan-24 10:04 231 1 gusting 2 7.2
2020-Jan-24 09:49 229 0 gusting 0 6.7
2020-Jan-24 09:44 229 0 gusting 2 6.7
2020-Jan-24 09:39 162 1 gusting 2 6.1
2020-Jan-24 09:19 259 5.6
2020-Jan-24 09:04 259 5.0
2020-Jan-24 08:49 259 4.4
2020-Jan-24 08:44 259 4.4
2020-Jan-24 08:39 259 4.4
2020-Jan-24 08:34 259 3.9
2020-Jan-24 08:19 025 3.9
2020-Jan-24 08:14 025 1 gusting 2 3.9
2020-Jan-24 08:04 024 1 gusting 2 3.3
2020-Jan-24 07:49 029 1 gusting 2 3.3
2020-Jan-24 07:39 025 2 gusting 2 2.8
2020-Jan-24 07:19 258 0 gusting 2 2.8
2020-Jan-24 07:14 051 1 gusting 2 3.3
2020-Jan-24 07:09 040 2 gusting 4 3.3
2020-Jan-24 07:04 034 3 gusting 6 3.3
2020-Jan-24 06:44 034 4 gusting 4 2.8
2020-Jan-24 06:39 034 2 gusting 2 2.8
2020-Jan-24 06:34 034 2 gusting 2 3.3
2020-Jan-24 06:19 033 1 gusting 2 3.3
2020-Jan-24 06:14 033 4 gusting 5 3.3
2020-Jan-24 06:09 036 4 gusting 4 3.3
2020-Jan-24 06:04 036 2 gusting 2 3.3
2020-Jan-24 05:49 034 2 gusting 4 3.3
2020-Jan-24 05:44 047 1 gusting 2 3.3
2020-Jan-24 05:39 040 2 gusting 6 3.3
2020-Jan-24 05:34 036 5 gusting 6 3.3
2020-Jan-24 05:19 032 2 gusting 2 3.3
2020-Jan-24 05:04 036 1 gusting 5 3.9
2020-Jan-24 04:49 036 5 gusting 6 3.9
2020-Jan-24 04:39 046 3.9
2020-Jan-24 04:19 035 2 gusting 4 3.9
2020-Jan-24 04:14 034 4 gusting 5 3.9
2020-Jan-24 04:09 029 2 gusting 4 3.9
2020-Jan-24 03:39 026 5 gusting 6 3.9
2020-Jan-24 03:34 034 5 gusting 6 3.9
2020-Jan-24 03:19 020 4.4
2020-Jan-24 03:14 020 1 gusting 5 4.4
2020-Jan-24 03:04 034 5 gusting 6 4.4
2020-Jan-24 02:49 031 4 gusting 5 4.4
2020-Jan-24 02:44 045 4 gusting 4 4.4
2020-Jan-24 02:34 031 2 gusting 4 4.4
2020-Jan-24 02:14 040 2 gusting 6 4.4
2020-Jan-24 02:09 038 5 gusting 6 4.4
2020-Jan-24 02:04 042 4 gusting 6 4.4
2020-Jan-24 01:44 023 2 gusting 6 4.4
2020-Jan-24 01:34 036 3 gusting 6 5.0
2020-Jan-24 01:19 035 3 gusting 5 5.0
2020-Jan-24 01:14 031 5 gusting 6 5.0
2020-Jan-24 01:09 031 2 gusting 6 5.0
2020-Jan-24 00:49 038 5 gusting 6 5.0
2020-Jan-24 00:44 039 4 gusting 6 5.0
2020-Jan-24 00:39 033 4 gusting 6 5.0
2020-Jan-24 00:19 033 6 gusting 6 5.0
2020-Jan-24 00:14 034 6 gusting 7 5.0
2020-Jan-24 00:09 035 6 gusting 6 5.0
2020-Jan-24 00:04 034 5 gusting 7 5.0
2020-Jan-23 23:49 035 6 gusting 6 5.6
2020-Jan-23 23:44 036 5 gusting 6 5.6
2020-Jan-23 23:34 035 4 gusting 6 5.6
2020-Jan-23 23:14 034 6 gusting 6 5.6
2020-Jan-23 23:09 034 5 gusting 6 5.6
2020-Jan-23 23:04 027 5 gusting 7 5.6
2020-Jan-23 22:44 034 6 gusting 7 6.1
2020-Jan-23 22:19 036 5 gusting 6 6.1
2020-Jan-23 22:14 034 5 gusting 6 6.1
2020-Jan-23 22:09 027 4 gusting 6 6.1
2020-Jan-23 22:04 029 5 gusting 6 6.1
2020-Jan-23 21:49 033 5 gusting 7 6.7
2020-Jan-23 21:39 030 6 gusting 7 6.1
2020-Jan-23 21:19 032 4 gusting 6 6.7
2020-Jan-23 21:14 030 5 gusting 6 6.7
2020-Jan-23 21:09 031 4 gusting 6 6.7
2020-Jan-23 21:04 022 5 gusting 6 7.2
2020-Jan-23 20:49 029 4 gusting 6 7.2
2020-Jan-23 20:44 032 4 gusting 5 7.2
2020-Jan-23 20:34 039 4 gusting 6 7.2
2020-Jan-23 20:19 037 5 gusting 6 7.2
2020-Jan-23 20:14 040 5 gusting 6 7.2
2020-Jan-23 20:09 039 5 gusting 6 7.2
2020-Jan-23 20:04 032 5 gusting 6 7.2
2020-Jan-23 19:49 035 3 gusting 6 7.2
2020-Jan-23 19:39 023 2 gusting 5 7.2
2020-Jan-23 19:34 018 4 gusting 7 7.8
2020-Jan-23 19:19 034 2 gusting 5 7.2
2020-Jan-23 19:14 038 3 gusting 5 7.8
2020-Jan-23 19:09 044 3 gusting 5 7.8
2020-Jan-23 18:44 041 2 gusting 4 8.3
2020-Jan-23 18:39 055 2 gusting 4 8.3
2020-Jan-23 18:34 037 2 gusting 6 8.3
2020-Jan-23 18:14 023 1 gusting 4 8.9
2020-Jan-23 18:04 037 2 gusting 7 9.4
2020-Jan-23 17:49 034 4 gusting 7 10.0
2020-Jan-23 17:44 022 5 gusting 6 10.0
2020-Jan-23 17:39 022 4 gusting 7 10.0
2020-Jan-23 17:19 021 6 gusting 10 10.0
2020-Jan-23 17:14 019 5 gusting 8 10.6
2020-Jan-23 17:09 029 4 gusting 7 10.0
2020-Jan-23 17:04 015 4 gusting 6 10.0
2020-Jan-23 16:49 022 4 gusting 6 10.0
2020-Jan-23 16:39 029 5 gusting 6 9.4
2020-Jan-23 16:34 029 3 gusting 8 9.4
2020-Jan-23 16:19 031 5 gusting 7 10.0
2020-Jan-23 16:09 025 5 gusting 6 10.6
2020-Jan-23 16:04 031 6 gusting 7 10.6
2020-Jan-23 15:49 033 4 gusting 5 11.7
2020-Jan-23 15:39 033 4 gusting 5 12.2
2020-Jan-23 15:34 033 4 gusting 5 12.8
2020-Jan-23 15:19 226 1 gusting 2 14.4
2020-Jan-23 15:14 224 14.4
2020-Jan-23 15:09 224 14.4
2020-Jan-23 14:44 225 15.0
2020-Jan-23 14:39 221 0 gusting 2 14.4
2020-Jan-23 14:34 225 1 gusting 4 14.4
2020-Jan-23 14:19 204 1 gusting 4 14.4
2020-Jan-23 14:14 219 1 gusting 2 14.4
2020-Jan-23 14:09 253 2 gusting 4 14.4
2020-Jan-23 14:04 224 1 gusting 4 14.4
2020-Jan-23 13:44 195 2 gusting 5 14.4
2020-Jan-23 13:34 166 1 gusting 4 14.4
2020-Jan-23 13:14 183 4 gusting 6 13.9
2020-Jan-23 13:09 187 2 gusting 5 13.9
2020-Jan-23 12:44 231 0 gusting 2 13.3
2020-Jan-23 12:34 173 0 gusting 2 13.3
2020-Jan-23 12:19 204 1 gusting 4 13.3
2020-Jan-23 12:09 211 1 gusting 2 13.3
2020-Jan-23 11:49 178 1 gusting 2 12.2
2020-Jan-23 11:44 193 0 gusting 1 12.2
2020-Jan-23 11:39 176 0 gusting 2 11.7